Time;durP1;ratioP1;P1;durP2;ratioP2;P2;SDS_P1;SDS_P2;PMS_P1;PMS_P2;Temp;Humidity;BMP_temperature;BMP_pressure;BME280_temperature;BME280_humidity;BME280_pressure;Samples;Min_cycle;Max_cycle;Signal;HPM_P1;HPM_P2
2022/04/06 00:01:48;;;;;;;8.48;4.97;;;8.60;99.90;;;;;;4988176;28;20085;-72
2022/04/06 00:04:14;;;;;;;10.55;4.65;;;8.50;99.90;;;;;;4988607;28;20054;-72
2022/04/06 00:06:40;;;;;;;14.05;4.53;;;8.50;99.90;;;;;;4988315;28;20027;-73
2022/04/06 00:09:06;;;;;;;13.40;5.70;;;8.50;99.90;;;;;;4987968;28;20058;-73
2022/04/06 00:11:32;;;;;;;9.95;5.32;;;8.50;99.90;;;;;;4971135;28;20034;-70
2022/04/06 00:13:58;;;;;;;12.20;5.30;;;8.50;99.90;;;;;;4988153;28;20039;-74
2022/04/06 00:16:24;;;;;;;11.80;5.20;;;8.50;99.90;;;;;;4988065;28;20034;-70
2022/04/06 00:18:51;;;;;;;10.90;5.32;;;8.50;99.90;;;;;;4988388;28;20513;-70
2022/04/06 00:21:17;;;;;;;9.65;4.60;;;8.50;99.90;;;;;;4988346;28;20026;-70
2022/04/06 00:23:43;;;;;;;10.38;4.95;;;8.50;99.90;;;;;;4987876;28;20026;-74
2022/04/06 00:26:09;;;;;;;12.88;6.25;;;8.50;99.90;;;;;;4988057;28;20046;-72
2022/04/06 00:28:34;;;;;;;16.35;5.13;;;8.50;99.90;;;;;;4986869;28;20038;-74
2022/04/06 00:31:00;;;;;;;15.15;5.13;;;8.40;99.90;;;;;;4970365;28;20039;-72
2022/04/06 00:33:25;;;;;;;17.98;4.72;;;8.40;99.90;;;;;;4970868;28;20388;-71
2022/04/06 00:35:52;;;;;;;16.63;5.53;;;8.40;99.90;;;;;;4999942;28;20031;-70
2022/04/06 00:38:18;;;;;;;13.95;6.03;;;8.40;99.90;;;;;;4990041;28;20054;-74
2022/04/06 00:40:44;;;;;;;9.48;4.78;;;8.40;99.90;;;;;;5007653;28;20053;-69
2022/04/06 00:43:11;;;;;;;11.90;4.43;;;8.50;99.90;;;;;;5006909;28;20030;-71
2022/04/06 00:45:39;;;;;;;23.02;6.25;;;8.40;99.90;;;;;;5007207;28;20034;-71
2022/04/06 00:48:05;;;;;;;12.07;5.28;;;8.40;99.90;;;;;;4991046;28;20090;-73
2022/04/06 00:50:31;;;;;;;9.52;4.68;;;8.40;99.90;;;;;;4987329;28;20091;-69
2022/04/06 00:52:57;;;;;;;10.15;4.75;;;8.40;99.90;;;;;;4987829;28;20041;-69
2022/04/06 00:55:34;;;;;;;12.40;6.32;;;8.40;99.90;;;;;;4987045;28;20023;-71
2022/04/06 00:58:00;;;;;;;13.60;5.13;;;8.40;99.90;;;;;;4986473;28;20094;-68
2022/04/06 01:00:26;;;;;;;7.93;4.28;;;8.40;99.90;;;;;;4987620;28;20031;-70
2022/04/06 01:02:52;;;;;;;17.35;5.25;;;8.40;99.90;;;;;;4991437;28;20386;-71
2022/04/06 01:05:18;;;;;;;14.85;5.53;;;8.40;99.90;;;;;;5006891;28;20047;-68
2022/04/06 01:07:49;;;;;;;20.58;5.32;;;8.40;99.90;;;;;;5007097;28;20114;-69
2022/04/06 01:10:17;;;;;;;10.65;5.30;;;8.40;99.90;;;;;;5006609;28;20050;-72
2022/04/06 01:12:46;;;;;;;17.48;6.70;;;8.40;99.90;;;;;;5006878;28;20061;-70
2022/04/06 01:15:13;;;;;;;15.02;5.82;;;8.40;99.90;;;;;;4998552;28;20113;-70
2022/04/06 01:17:39;;;;;;;12.15;4.97;;;8.40;99.90;;;;;;4986773;28;20047;-70
2022/04/06 01:20:07;;;;;;;13.52;5.30;;;8.40;99.90;;;;;;4987227;28;20038;-70
2022/04/06 01:22:32;;;;;;;15.52;5.75;;;8.30;99.90;;;;;;4987120;28;20018;-71
2022/04/06 01:24:58;;;;;;;12.85;5.55;;;8.40;99.90;;;;;;4986496;28;20043;-69
2022/04/06 01:27:24;;;;;;;15.43;6.38;;;8.30;99.90;;;;;;4986733;28;20061;-71
2022/04/06 01:29:52;;;;;;;14.73;6.30;;;8.40;99.90;;;;;;4986946;28;20062;-72
2022/04/06 01:32:35;;;;;;;15.20;5.72;;;8.30;99.90;;;;;;4986675;28;20023;-69
2022/04/06 01:35:02;;;;;;;15.05;6.70;;;8.30;99.90;;;;;;4987106;28;20034;-69
2022/04/06 01:37:28;;;;;;;12.38;5.00;;;8.30;99.90;;;;;;4986583;28;20091;-69
2022/04/06 01:39:54;;;;;;;12.70;5.82;;;8.30;99.90;;;;;;4986472;28;20030;-70
2022/04/06 01:42:20;;;;;;;11.68;5.25;;;8.30;99.90;;;;;;4986782;28;20046;-72
2022/04/06 01:44:48;;;;;;;14.75;5.53;;;8.30;99.90;;;;;;4986372;28;20070;-72
2022/04/06 01:47:16;;;;;;;11.63;5.65;;;8.30;99.90;;;;;;4986734;28;20023;-73
2022/04/06 01:52:28;;;;;;;20.10;6.45;;;8.30;99.90;;;;;;4986532;28;20038;-71
2022/04/06 01:54:56;;;;;;;13.18;5.72;;;8.30;99.90;;;;;;4986593;28;20027;-71
2022/04/06 01:57:24;;;;;;;20.27;6.00;;;8.30;99.90;;;;;;4986393;28;20062;-72
2022/04/06 01:59:50;;;;;;;17.85;5.95;;;8.30;99.90;;;;;;4986061;28;20047;-71
2022/04/06 02:02:18;;;;;;;28.77;7.80;;;8.30;99.90;;;;;;4986657;28;20034;-74
2022/04/06 02:04:44;;;;;;;12.82;6.82;;;8.30;99.90;;;;;;4985862;28;20043;-71
2022/04/06 02:07:11;;;;;;;15.27;7.45;;;8.30;99.90;;;;;;4985530;28;20037;-71
2022/04/06 02:09:38;;;;;;;18.27;8.15;;;8.30;99.90;;;;;;4986327;28;20052;-70
2022/04/06 02:12:06;;;;;;;16.95;7.35;;;8.30;99.90;;;;;;4985913;28;20411;-70
2022/04/06 02:14:32;;;;;;;20.90;7.57;;;8.30;99.90;;;;;;4986044;28;20114;-71
2022/04/06 02:16:59;;;;;;;14.43;7.50;;;8.30;99.90;;;;;;4986255;28;20034;-72
2022/04/06 02:19:25;;;;;;;21.95;8.57;;;8.30;99.90;;;;;;4986033;28;20138;-73
2022/04/06 02:21:51;;;;;;;17.65;7.60;;;8.30;99.90;;;;;;4968738;28;20033;-73
2022/04/06 02:24:18;;;;;;;20.73;7.93;;;8.30;99.90;;;;;;4986222;28;20039;-72
2022/04/06 02:26:45;;;;;;;12.25;6.82;;;8.30;99.90;;;;;;4968273;28;20043;-72
2022/04/06 02:29:12;;;;;;;19.75;8.85;;;8.30;99.90;;;;;;4986186;28;20058;-72
2022/04/06 02:31:38;;;;;;;20.58;8.82;;;8.30;99.90;;;;;;4986321;28;20027;-72
2022/04/06 02:34:03;;;;;;;24.25;9.73;;;8.30;99.90;;;;;;4985718;28;20917;-70
2022/04/06 02:36:29;;;;;;;26.17;9.93;;;8.40;99.90;;;;;;4986132;28;20031;-73
2022/04/06 02:38:55;;;;;;;31.95;10.68;;;8.40;99.90;;;;;;4986028;28;20066;-71
2022/04/06 02:41:20;;;;;;;24.75;10.23;;;8.40;99.90;;;;;;4985592;28;20039;-73
2022/04/06 02:43:46;;;;;;;20.75;9.02;;;8.40;99.90;;;;;;4968551;28;20023;-71
2022/04/06 02:46:13;;;;;;;25.45;11.73;;;8.40;99.90;;;;;;4985849;28;20034;-72
2022/04/06 02:48:39;;;;;;;27.00;12.55;;;8.40;99.90;;;;;;4985859;28;20035;-71
2022/04/06 02:51:04;;;;;;;30.90;11.07;;;8.40;99.90;;;;;;4985901;28;20075;-71
2022/04/06 02:53:30;;;;;;;23.67;10.43;;;8.40;99.90;;;;;;4985604;28;20456;-70
2022/04/06 02:55:55;;;;;;;22.92;10.50;;;8.40;99.90;;;;;;4985614;28;20073;-69
2022/04/06 02:58:21;;;;;;;28.30;11.98;;;8.40;99.90;;;;;;4985720;28;20030;-70
2022/04/06 03:00:47;;;;;;;27.00;11.13;;;8.50;99.90;;;;;;4985857;28;20039;-72
2022/04/06 03:03:12;;;;;;;25.70;10.63;;;8.50;99.90;;;;;;4985743;28;20431;-73
2022/04/06 03:05:39;;;;;;;27.45;12.20;;;8.50;99.90;;;;;;4968318;28;20043;-71
2022/04/06 03:08:10;;;;;;;28.60;13.40;;;8.50;99.90;;;;;;4985523;28;20023;-70
2022/04/06 03:10:45;;;;;;;26.88;13.02;;;8.50;99.90;;;;;;4985750;28;20039;-73
2022/04/06 03:13:10;;;;;;;31.75;13.43;;;8.50;99.90;;;;;;4984912;28;20652;-72
2022/04/06 03:15:36;;;;;;;30.05;13.07;;;8.50;99.90;;;;;;4984111;28;20034;-73
2022/04/06 03:18:04;;;;;;;35.05;14.98;;;8.40;99.90;;;;;;4988146;28;20407;-73
2022/04/06 03:20:29;;;;;;;38.10;14.88;;;8.50;99.90;;;;;;4989498;28;20030;-70
2022/04/06 03:22:55;;;;;;;26.23;13.05;;;8.50;99.90;;;;;;4993527;28;20022;-76
2022/04/06 03:25:21;;;;;;;35.30;14.07;;;8.50;99.90;;;;;;5008505;28;20049;-72
2022/04/06 03:27:47;;;;;;;32.10;14.07;;;8.50;99.90;;;;;;5008369;28;20517;-73
2022/04/06 03:30:14;;;;;;;47.17;14.57;;;8.50;99.90;;;;;;5008501;28;20113;-73
2022/04/06 03:32:40;;;;;;;27.48;13.05;;;8.40;99.90;;;;;;4999048;28;20035;-71
2022/04/06 03:35:07;;;;;;;26.98;12.07;;;8.50;99.90;;;;;;4988777;28;20031;-73
2022/04/06 03:37:33;;;;;;;23.25;12.45;;;8.40;99.90;;;;;;4988833;28;20135;-73
2022/04/06 03:39:59;;;;;;;35.00;12.63;;;8.50;99.90;;;;;;4971420;28;20388;-72
2022/04/06 03:42:25;;;;;;;41.95;12.95;;;8.50;99.90;;;;;;4988693;28;20039;-72
2022/04/06 03:44:51;;;;;;;21.75;11.35;;;8.40;99.90;;;;;;4971429;28;20045;-72
2022/04/06 03:47:17;;;;;;;34.03;12.73;;;8.40;99.90;;;;;;4989049;28;20026;-71
2022/04/06 03:49:43;;;;;;;47.33;13.15;;;8.40;99.90;;;;;;4975355;28;20057;-73
2022/04/06 03:52:08;;;;;;;34.67;12.88;;;8.50;99.90;;;;;;4990303;28;20037;-72
2022/04/06 03:54:34;;;;;;;29.52;9.90;;;8.40;99.90;;;;;;5008326;28;20018;-73
2022/04/06 03:57:00;;;;;;;30.42;10.38;;;8.40;99.90;;;;;;5007789;28;20027;-72
2022/04/06 03:59:26;;;;;;;28.77;10.40;;;8.40;99.90;;;;;;5008059;28;20050;-72
2022/04/06 04:01:52;;;;;;;28.95;10.90;;;8.50;99.90;;;;;;5007970;28;20030;-72
2022/04/06 04:04:17;;;;;;;28.67;10.90;;;8.50;99.90;;;;;;5007830;28;20069;-74
2022/04/06 04:06:44;;;;;;;27.77;11.35;;;8.40;99.90;;;;;;5008321;28;20073;-73
2022/04/06 04:09:09;;;;;;;22.95;9.23;;;8.40;99.90;;;;;;4987140;28;20034;-74
2022/04/06 04:11:35;;;;;;;26.67;9.90;;;8.50;99.90;;;;;;4988367;28;20034;-71
2022/04/06 04:14:01;;;;;;;34.97;9.65;;;8.40;99.90;;;;;;4988232;28;20059;-71
2022/04/06 04:16:26;;;;;;;19.27;8.27;;;8.40;99.90;;;;;;4988064;28;20042;-72
2022/04/06 04:18:52;;;;;;;31.70;10.82;;;8.50;99.90;;;;;;4987566;28;20027;-72
2022/04/06 04:21:34;;;;;;;22.40;9.68;;;8.40;99.90;;;;;;4988576;28;20031;-71
2022/04/06 04:24:04;;;;;;;19.92;7.47;;;8.50;99.90;;;;;;4986244;28;20030;-72
2022/04/06 04:26:31;;;;;;;23.90;9.07;;;8.50;99.90;;;;;;4987245;28;20042;-74
2022/04/06 04:28:57;;;;;;;17.73;9.38;;;8.50;99.90;;;;;;4991558;28;20047;-76
2022/04/06 04:31:23;;;;;;;27.88;9.75;;;8.50;99.90;;;;;;5006805;28;20086;-73
2022/04/06 04:33:49;;;;;;;18.73;8.20;;;8.40;99.90;;;;;;5007670;28;20026;-70
2022/04/06 04:36:16;;;;;;;19.50;7.28;;;8.50;99.90;;;;;;5007729;28;20031;-71
2022/04/06 04:38:44;;;;;;;22.95;8.77;;;8.50;99.90;;;;;;5007277;28;20372;-72
2022/04/06 04:41:12;;;;;;;22.95;7.97;;;8.50;99.90;;;;;;5007594;28;20032;-71
2022/04/06 04:43:37;;;;;;;15.20;6.65;;;8.50;99.90;;;;;;5007117;28;20035;-70
2022/04/06 04:46:03;;;;;;;28.48;7.50;;;8.40;99.90;;;;;;4989594;28;20054;-72
2022/04/06 04:48:29;;;;;;;25.08;8.13;;;8.40;99.90;;;;;;4995615;28;20183;-71
2022/04/06 04:50:55;;;;;;;21.60;8.68;;;8.40;99.90;;;;;;4987547;28;20042;-71
2022/04/06 04:53:21;;;;;;;20.70;7.88;;;8.40;99.90;;;;;;4987501;28;20442;-71
2022/04/06 04:55:47;;;;;;;30.15;8.15;;;8.40;99.90;;;;;;4987666;28;20038;-71
2022/04/06 04:58:13;;;;;;;15.10;6.57;;;8.40;99.90;;;;;;4987544;28;20035;-72
2022/04/06 05:00:38;;;;;;;20.52;7.75;;;8.40;99.90;;;;;;4987137;28;20054;-70
2022/04/06 05:03:05;;;;;;;15.77;6.75;;;8.40;99.90;;;;;;4964972;28;20031;-75
2022/04/06 05:05:31;;;;;;;21.25;7.32;;;8.40;99.90;;;;;;4965515;28;20134;-71
2022/04/06 05:07:59;;;;;;;17.25;7.47;;;8.40;99.90;;;;;;4966819;28;20031;-71
2022/04/06 05:10:25;;;;;;;22.85;7.45;;;8.30;99.90;;;;;;4967158;28;20019;-69
2022/04/06 05:12:51;;;;;;;21.17;7.75;;;8.30;99.90;;;;;;4949738;28;20032;-69
2022/04/06 05:15:17;;;;;;;18.67;8.00;;;8.30;99.90;;;;;;4967817;28;20353;-69
2022/04/06 05:17:43;;;;;;;23.70;9.23;;;8.30;99.90;;;;;;4967427;28;20114;-70
2022/04/06 05:20:10;;;;;;;22.58;7.80;;;8.40;99.90;;;;;;4967325;28;20455;-70
2022/04/06 05:22:36;;;;;;;17.67;8.07;;;8.40;99.90;;;;;;4975310;28;20029;-69
2022/04/06 05:25:04;;;;;;;20.13;7.78;;;8.40;99.90;;;;;;4976946;28;20058;-69
2022/04/06 05:27:47;;;;;;;23.20;8.27;;;8.40;99.90;;;;;;4985874;28;20043;-68
2022/04/06 05:30:15;;;;;;;29.23;8.98;;;8.40;99.90;;;;;;4986273;28;20027;-72
2022/04/06 05:32:41;;;;;;;22.70;7.82;;;8.40;99.90;;;;;;4986205;28;20040;-70
2022/04/06 05:35:09;;;;;;;33.10;8.77;;;8.40;99.90;;;;;;4985307;28;20094;-70
2022/04/06 05:37:38;;;;;;;31.77;8.95;;;8.40;99.90;;;;;;4976072;28;20249;-70
2022/04/06 05:40:06;;;;;;;30.98;8.80;;;8.40;99.90;;;;;;4968769;28;20061;-71
2022/04/06 05:42:32;;;;;;;23.60;9.07;;;8.40;99.90;;;;;;4971725;28;20034;-68
2022/04/06 05:44:57;;;;;;;26.40;8.38;;;8.40;99.90;;;;;;4986178;28;20066;-68
2022/04/06 05:47:24;;;;;;;15.70;7.28;;;8.50;99.90;;;;;;4984353;28;20041;-70
2022/04/06 05:49:51;;;;;;;21.65;9.07;;;8.40;99.90;;;;;;4982225;28;20058;-70
2022/04/06 05:52:18;;;;;;;29.42;10.32;;;8.40;99.90;;;;;;4981265;28;20046;-69
2022/04/06 05:54:44;;;;;;;19.65;9.95;;;8.50;99.90;;;;;;4968380;28;20396;-70
2022/04/06 05:57:10;;;;;;;19.20;9.55;;;8.50;99.90;;;;;;4986054;28;20061;-69
2022/04/06 05:59:36;;;;;;;25.95;10.43;;;8.50;99.90;;;;;;4986091;28;20066;-69
2022/04/06 06:02:03;;;;;;;30.70;9.15;;;8.50;99.90;;;;;;4985732;28;20027;-69
2022/04/06 06:04:29;;;;;;;25.85;8.85;;;8.50;99.90;;;;;;4974987;28;20539;-68
2022/04/06 06:06:54;;;;;;;29.00;10.02;;;8.50;99.90;;;;;;4949265;29;20042;-70
2022/04/06 06:09:20;;;;;;;28.20;9.85;;;8.50;99.90;;;;;;4967412;28;20023;-70
2022/04/06 06:11:54;;;;;;;30.13;12.13;;;8.50;99.90;;;;;;4984136;28;20034;-74
2022/04/06 06:14:20;;;;;;;;;;;8.60;99.90;;;;;;4961740;28;20502;-71
2022/04/06 06:16:47;;;;;;;33.45;11.75;;;8.60;99.90;;;;;;4985386;28;19913;-71
2022/04/06 06:19:13;;;;;;;24.83;10.57;;;8.60;99.90;;;;;;4984372;28;20031;-69
2022/04/06 06:21:38;;;;;;;33.10;11.38;;;8.60;99.90;;;;;;4984392;28;20114;-67
2022/04/06 06:24:06;;;;;;;30.23;12.07;;;8.60;99.90;;;;;;4981123;28;20086;-70
2022/04/06 06:26:33;;;;;;;20.98;10.85;;;8.60;99.90;;;;;;4974766;28;20439;-70
2022/04/06 06:29:00;;;;;;;23.80;11.70;;;8.60;99.90;;;;;;4981304;28;20070;-69
2022/04/06 06:31:28;;;;;;;28.60;11.65;;;8.60;99.90;;;;;;4980882;28;20031;-68
2022/04/06 06:33:54;;;;;;;28.58;10.85;;;8.70;99.90;;;;;;4978806;28;20037;-68
2022/04/06 06:36:23;;;;;;;25.60;9.32;;;8.70;99.90;;;;;;4982310;28;20173;-71
2022/04/06 06:38:50;;;;;;;27.52;11.02;;;8.70;99.90;;;;;;4964727;28;20038;-71
2022/04/06 06:41:15;;;;;;;27.15;12.27;;;8.80;99.90;;;;;;4969206;28;20018;-71
2022/04/06 06:43:41;;;;;;;26.02;10.70;;;8.80;99.90;;;;;;4987871;28;20038;-70
2022/04/06 06:46:06;;;;;;;30.65;11.38;;;8.90;99.90;;;;;;4997977;28;20183;-70
2022/04/06 06:48:32;;;;;;;32.35;11.20;;;8.90;99.90;;;;;;4985048;28;20042;-73
2022/04/06 06:50:58;;;;;;;33.35;11.45;;;8.90;99.90;;;;;;4983801;28;20039;-69
2022/04/06 06:53:23;;;;;;;25.98;9.30;;;8.90;99.90;;;;;;4984404;28;20022;-69
2022/04/06 06:55:49;;;;;;;29.65;10.82;;;9.00;99.90;;;;;;4989882;28;20110;-72
2022/04/06 06:58:15;;;;;;;30.90;11.13;;;9.10;99.90;;;;;;4971001;28;20042;-70
2022/04/06 07:00:41;;;;;;;22.83;10.00;;;9.10;99.90;;;;;;4970543;28;20186;-72
2022/04/06 07:03:07;;;;;;;22.27;11.02;;;9.20;99.90;;;;;;4971235;28;20030;-74
2022/04/06 07:05:32;;;;;;;26.10;10.55;;;9.20;99.90;;;;;;4986780;28;20039;-73
2022/04/06 07:08:01;;;;;;;25.20;10.82;;;9.20;99.90;;;;;;4988052;28;20102;-71
2022/04/06 07:10:28;;;;;;;18.60;8.60;;;9.20;99.90;;;;;;4988294;28;20023;-71
2022/04/06 07:12:57;;;;;;;21.85;9.75;;;9.20;99.90;;;;;;4988035;28;20031;-70
2022/04/06 07:15:23;;;;;;;21.05;8.38;;;9.20;99.90;;;;;;4985166;28;20023;-73
2022/04/06 07:17:54;;;;;;;24.88;9.43;;;9.30;99.90;;;;;;4980542;28;20079;-74
2022/04/06 07:20:21;;;;;;;16.15;9.00;;;9.30;99.90;;;;;;4981198;28;20194;-71
2022/04/06 07:22:47;;;;;;;37.65;8.70;;;9.30;99.90;;;;;;4977441;28;20042;-72
2022/04/06 07:25:14;;;;;;;19.77;8.75;;;9.30;99.90;;;;;;4975100;28;20106;-72
2022/04/06 07:27:39;;;;;;;25.13;8.75;;;9.30;99.90;;;;;;4971144;28;20059;-73
2022/04/06 07:30:07;;;;;;;25.70;8.23;;;9.30;99.90;;;;;;4987400;28;20026;-70
2022/04/06 07:32:37;;;;;;;17.00;7.38;;;9.30;99.90;;;;;;4979078;28;20035;-72
2022/04/06 07:35:05;;;;;;;25.02;8.20;;;9.40;99.90;;;;;;4969464;28;20142;-68
2022/04/06 07:37:38;;;;;;;17.58;7.45;;;9.40;99.90;;;;;;4977987;28;20034;-71
2022/04/06 07:40:05;;;;;;;13.73;7.25;;;9.50;99.90;;;;;;4970617;28;20027;-70
2022/04/06 07:42:30;;;;;;;13.48;6.63;;;9.40;99.90;;;;;;4988536;28;20085;-71
2022/04/06 07:44:56;;;;;;;13.52;7.10;;;9.50;99.90;;;;;;4988801;28;20482;-71
2022/04/06 07:47:27;;;;;;;17.02;6.70;;;9.50;99.90;;;;;;4988359;28;20030;-71
2022/04/06 07:49:53;;;;;;;10.38;5.78;;;9.50;99.90;;;;;;4970824;28;20035;-71
2022/04/06 07:52:22;;;;;;;9.20;4.60;;;9.50;99.90;;;;;;4984438;28;20027;-72
2022/04/06 07:54:47;;;;;;;21.27;7.68;;;9.50;99.90;;;;;;4977603;28;20038;-73
2022/04/06 07:57:13;;;;;;;17.40;6.35;;;9.50;99.90;;;;;;4963721;28;20035;-71
2022/04/06 07:59:39;;;;;;;17.55;5.95;;;9.50;99.90;;;;;;4960028;28;20035;-72
2022/04/06 08:02:05;;;;;;;16.65;4.47;;;9.50;99.90;;;;;;4987935;28;20030;-70
2022/04/06 08:04:30;;;;;;;14.07;6.10;;;9.60;99.90;;;;;;4988378;28;20059;-70
2022/04/06 08:06:56;;;;;;;13.45;5.75;;;9.60;99.90;;;;;;4982866;28;20073;-72
2022/04/06 08:09:22;;;;;;;14.20;5.38;;;9.60;99.90;;;;;;4975185;28;20037;-73
2022/04/06 08:11:50;;;;;;;7.13;4.05;;;9.60;99.90;;;;;;4966513;28;20384;-73
2022/04/06 08:14:16;;;;;;;13.10;4.60;;;9.60;99.90;;;;;;4988047;28;20027;-73
2022/04/06 08:16:42;;;;;;;6.88;3.38;;;9.70;99.90;;;;;;4987652;28;20090;-73
2022/04/06 08:19:08;;;;;;;11.07;4.43;;;9.60;99.90;;;;;;4984531;28;20058;-69
2022/04/06 08:21:34;;;;;;;7.88;4.05;;;9.60;99.90;;;;;;4979605;28;20031;-72
2022/04/06 08:23:59;;;;;;;5.70;3.40;;;9.60;99.90;;;;;;4974504;28;20490;-71
2022/04/06 08:26:27;;;;;;;10.57;3.28;;;9.60;99.90;;;;;;4973757;28;20039;-72
2022/04/06 08:28:54;;;;;;;10.20;4.05;;;9.60;99.90;;;;;;4967977;28;20590;-70
2022/04/06 08:31:21;;;;;;;8.60;3.30;;;9.50;99.90;;;;;;4987014;28;20033;-69
2022/04/06 08:33:47;;;;;;;11.77;3.55;;;9.50;99.90;;;;;;4988081;28;20027;-70
2022/04/06 08:36:17;;;;;;;8.90;3.78;;;9.50;99.90;;;;;;4987674;28;20062;-70
2022/04/06 08:38:44;;;;;;;5.35;2.92;;;9.50;99.90;;;;;;4969653;28;20039;-69
2022/04/06 08:41:09;;;;;;;7.57;3.90;;;9.40;99.90;;;;;;4982416;28;20023;-71
2022/04/06 08:43:35;;;;;;;7.47;3.13;;;9.50;99.90;;;;;;4966824;28;20484;-73
2022/04/06 08:46:02;;;;;;;8.93;4.07;;;9.50;99.90;;;;;;4979634;28;20098;-69
2022/04/06 08:48:31;;;;;;;12.48;3.08;;;9.50;99.90;;;;;;4978754;28;20037;-72
2022/04/06 08:51:00;;;;;;;5.22;2.53;;;9.50;99.90;;;;;;4976204;28;20451;-72
2022/04/06 08:53:25;;;;;;;5.72;3.03;;;9.60;99.90;;;;;;4985874;28;20038;-71
2022/04/06 08:55:51;;;;;;;6.50;3.20;;;9.50;99.90;;;;;;4987440;28;20211;-70
2022/04/06 08:58:17;;;;;;;7.65;3.33;;;9.60;99.90;;;;;;4986243;28;20410;-72
2022/04/06 09:00:44;;;;;;;6.00;2.47;;;9.60;99.90;;;;;;4982889;28;20038;-72
2022/04/06 09:03:13;;;;;;;12.02;3.58;;;9.60;99.90;;;;;;4986317;28;20034;-73
2022/04/06 09:05:39;;;;;;;4.43;2.47;;;9.60;99.90;;;;;;4981273;28;20093;-72
2022/04/06 09:08:06;;;;;;;6.88;2.70;;;9.60;99.90;;;;;;4982875;28;20625;-71
2022/04/06 09:10:35;;;;;;;10.13;3.17;;;9.50;99.90;;;;;;4984492;28;20037;-72
2022/04/06 09:13:17;;;;;;;15.05;3.38;;;9.50;99.90;;;;;;4985874;28;20031;-72
2022/04/06 09:15:46;;;;;;;4.53;2.67;;;9.50;99.90;;;;;;4968309;28;20035;-70
2022/04/06 09:18:12;;;;;;;4.43;2.90;;;9.50;99.90;;;;;;4975404;28;20564;-70
2022/04/06 09:20:40;;;;;;;5.35;3.08;;;9.50;99.90;;;;;;4984954;28;20027;-70
2022/04/06 09:23:07;;;;;;;7.05;3.75;;;9.40;99.90;;;;;;4982393;28;20027;-71
2022/04/06 09:25:34;;;;;;;9.15;3.33;;;9.50;99.90;;;;;;4953932;28;20053;-70
2022/04/06 09:28:11;;;;;;;4.10;2.33;;;9.50;99.90;;;;;;4975963;28;20051;-70
2022/04/06 09:30:46;;;;;;;8.48;3.78;;;9.50;99.90;;;;;;4979730;28;20035;-71
2022/04/06 09:33:14;;;;;;;6.05;2.80;;;9.40;99.90;;;;;;4967349;28;20121;-69
2022/04/06 09:35:41;;;;;;;6.22;3.28;;;9.50;99.90;;;;;;4970932;28;20018;-72
2022/04/06 09:38:27;;;;;;;4.57;2.95;;;9.50;99.90;;;;;;4986287;28;20431;-70
2022/04/06 09:41:02;;;;;;;13.77;3.67;;;9.50;99.90;;;;;;4986749;28;20037;-72
2022/04/06 09:43:31;;;;;;;10.90;3.38;;;9.50;99.90;;;;;;4985463;28;20038;-69
2022/04/06 09:49:08;;;;;;;10.40;3.33;;;9.50;99.90;;;;;;4985521;28;20061;-71
2022/04/06 09:51:35;;;;;;;10.23;3.80;;;9.50;99.90;;;;;;4974962;28;20098;-69
2022/04/06 09:54:04;;;;;;;11.70;3.20;;;9.50;99.90;;;;;;4974836;28;20038;-69
2022/04/06 09:56:34;;;;;;;8.32;3.85;;;9.50;99.90;;;;;;4979796;28;20027;-72
2022/04/06 09:59:01;;;;;;;6.82;4.28;;;9.50;99.90;;;;;;4985150;28;20027;-70
2022/04/06 10:01:34;;;;;;;8.20;3.72;;;9.50;99.90;;;;;;4965711;28;20062;-69
2022/04/06 10:04:10;;;;;;;9.18;3.95;;;9.50;99.90;;;;;;4963289;28;20038;-70
2022/04/06 10:06:37;;;;;;;10.70;5.90;;;9.50;99.90;;;;;;4964613;28;20042;-70
2022/04/06 10:09:06;;;;;;;10.48;5.15;;;9.50;99.90;;;;;;4986211;28;20090;-70
2022/04/06 10:11:40;;;;;;;11.95;5.72;;;9.50;99.90;;;;;;4968689;28;20766;-69
2022/04/06 10:14:08;;;;;;;10.40;4.28;;;9.60;99.90;;;;;;4985738;28;20018;-71
2022/04/06 10:16:38;;;;;;;9.40;4.38;;;9.60;99.90;;;;;;4979184;28;20089;-71
2022/04/06 10:19:05;;;;;;;8.35;4.18;;;9.70;99.90;;;;;;4971603;28;20035;-71
2022/04/06 10:21:56;;;;;;;8.32;4.63;;;9.70;99.90;;;;;;4980986;28;20031;-72
2022/04/06 10:24:39;;;;;;;13.80;5.05;;;9.80;99.90;;;;;;4981658;28;20037;-71
2022/04/06 10:27:34;;;;;;;9.40;4.82;;;9.80;99.90;;;;;;4958527;28;20042;-67
2022/04/06 10:30:17;;;;;;;14.07;4.72;;;9.90;99.90;;;;;;4972843;28;20038;-69
2022/04/06 10:32:44;;;;;;;10.07;4.70;;;9.90;99.90;;;;;;4971365;28;20479;-69
2022/04/06 10:35:37;;;;;;;12.57;5.30;;;9.90;99.90;;;;;;4977288;28;20034;-70
2022/04/06 10:38:03;;;;;;;7.18;4.30;;;10.00;99.90;;;;;;4977852;28;20556;-72
2022/04/06 10:40:49;;;;;;;11.73;5.15;;;10.00;99.90;;;;;;4974662;28;20141;-71
2022/04/06 10:43:33;;;;;;;9.00;4.82;;;10.00;99.90;;;;;;4965252;28;20043;-72
2022/04/06 10:46:00;;;;;;;9.50;5.22;;;10.00;99.90;;;;;;4970767;28;20043;-73
2022/04/06 10:48:26;;;;;;;5.43;3.72;;;10.00;99.90;;;;;;4977100;28;20114;-71
2022/04/06 10:50:52;;;;;;;9.35;3.95;;;10.10;99.90;;;;;;4974391;28;20058;-74
2022/04/06 10:53:21;;;;;;;8.70;4.32;;;10.10;99.90;;;;;;4964223;28;20054;-73
2022/04/06 10:56:12;;;;;;;13.30;4.90;;;10.10;99.90;;;;;;4980615;28;20042;-74
2022/04/06 10:58:56;;;;;;;10.55;4.50;;;10.20;99.90;;;;;;4984884;28;20034;-73
2022/04/06 11:01:33;;;;;;;12.82;4.70;;;10.20;99.90;;;;;;4978768;28;20039;-73
2022/04/06 11:04:03;;;;;;;11.00;4.50;;;10.20;99.90;;;;;;4948524;28;20055;-73
2022/04/06 11:06:57;;;;;;;9.63;4.15;;;10.20;99.90;;;;;;4977431;28;20054;-73
2022/04/06 11:12:20;;;;;;;9.50;4.90;;;10.10;99.90;;;;;;4975046;28;20165;-71
2022/04/06 11:15:00;;;;;;;6.97;3.92;;;10.10;99.90;;;;;;4967347;28;20050;-73
2022/04/06 11:17:36;;;;;;;12.38;3.97;;;10.10;99.90;;;;;;4982274;28;20027;-71
2022/04/06 11:20:17;;;;;;;10.30;3.63;;;10.10;99.90;;;;;;4966097;28;20039;-74
2022/04/06 11:22:55;;;;;;;10.55;3.33;;;10.10;99.90;;;;;;4975806;28;20472;-71
2022/04/06 11:25:23;;;;;;;6.20;3.42;;;10.10;99.90;;;;;;4975021;28;20058;-74
2022/04/06 11:27:50;;;;;;;12.77;3.85;;;10.10;99.90;;;;;;4977437;28;20070;-72
2022/04/06 11:30:15;;;;;;;6.70;3.83;;;10.20;99.90;;;;;;4968221;28;20024;-71
2022/04/06 11:32:52;;;;;;;6.35;3.47;;;10.30;99.90;;;;;;4984468;28;20031;-71
2022/04/06 11:35:17;;;;;;;15.73;4.28;;;10.30;99.90;;;;;;4985504;28;20061;-74
2022/04/06 11:37:48;;;;;;;8.38;4.30;;;10.30;99.90;;;;;;4985629;28;20090;-72
2022/04/06 11:40:20;;;;;;;9.52;3.83;;;10.30;99.90;;;;;;4989123;28;20027;-73
2022/04/06 11:42:53;;;;;;;6.03;3.78;;;10.30;99.90;;;;;;4971236;28;20031;-76
2022/04/06 11:45:30;;;;;;;5.88;2.70;;;10.30;99.90;;;;;;4970809;28;20071;-74
2022/04/06 11:48:04;;;;;;;8.15;2.97;;;10.30;99.90;;;;;;4969435;28;20058;-72
2022/04/06 11:50:31;;;;;;;4.18;3.15;;;10.40;99.90;;;;;;4968869;28;20027;-72
2022/04/06 11:53:08;;;;;;;10.70;3.67;;;10.40;99.90;;;;;;4969395;28;20070;-71
2022/04/06 11:55:48;;;;;;;8.73;3.97;;;10.50;99.90;;;;;;4969281;28;20058;-71
2022/04/06 11:58:39;;;;;;;5.32;2.95;;;10.50;99.90;;;;;;4969052;28;20039;-74
2022/04/06 12:01:10;;;;;;;13.25;3.42;;;10.50;99.90;;;;;;4969064;28;20468;-74
2022/04/06 12:03:37;;;;;;;9.38;3.63;;;10.50;99.90;;;;;;4968671;28;20023;-73
2022/04/06 12:06:06;;;;;;;7.15;3.30;;;10.50;99.90;;;;;;4977059;28;20599;-72
2022/04/06 12:08:33;;;;;;;6.80;2.72;;;10.50;99.90;;;;;;4985877;28;20031;-72
2022/04/06 12:11:00;;;;;;;3.67;2.50;;;10.40;99.90;;;;;;4978345;28;20085;-75
2022/04/06 12:13:28;;;;;;;6.97;3.53;;;10.40;99.90;;;;;;4986938;28;20087;-74
2022/04/06 12:15:55;;;;;;;9.70;3.35;;;10.40;99.90;;;;;;4978847;28;20023;-74
2022/04/06 12:18:23;;;;;;;13.82;3.72;;;10.40;99.90;;;;;;4963930;28;20399;-73
2022/04/06 12:20:50;;;;;;;8.18;3.67;;;10.40;99.90;;;;;;4988250;28;20027;-71
2022/04/06 12:23:18;;;;;;;10.13;2.63;;;10.40;99.90;;;;;;4988070;28;20027;-71
2022/04/06 12:25:47;;;;;;;4.50;3.00;;;10.40;99.90;;;;;;4987727;28;20057;-72
2022/04/06 12:28:18;;;;;;;6.03;3.80;;;10.40;99.90;;;;;;4988105;28;20058;-71
2022/04/06 12:31:04;;;;;;;7.18;3.45;;;10.40;99.90;;;;;;4987971;28;20050;-72
2022/04/06 12:33:37;;;;;;;4.13;2.92;;;10.40;99.90;;;;;;4988336;28;20023;-74
2022/04/06 12:36:27;;;;;;;12.68;4.38;;;10.40;99.90;;;;;;4988155;28;20027;-72
2022/04/06 12:39:09;;;;;;;8.15;4.03;;;10.40;99.90;;;;;;4970131;28;20095;-73
2022/04/06 12:41:51;;;;;;;8.95;4.03;;;10.40;99.90;;;;;;4988086;28;20050;-70
2022/04/06 12:44:19;;;;;;;6.07;3.67;;;10.40;99.90;;;;;;4986284;28;20027;-72
2022/04/06 12:46:47;;;;;;;13.63;3.70;;;10.20;99.90;;;;;;4987466;28;20033;-74
2022/04/06 12:49:41;;;;;;;5.10;3.63;;;10.10;99.90;;;;;;4987155;28;20066;-71
2022/04/06 12:52:21;;;;;;;9.13;4.18;;;10.10;99.90;;;;;;4987061;28;20108;-71
2022/04/06 12:54:52;;;;;;;7.40;3.63;;;10.00;99.90;;;;;;4987700;28;20023;-70
2022/04/06 12:57:34;;;;;;;7.03;3.45;;;10.00;99.90;;;;;;4987534;28;20026;-72
2022/04/06 13:00:08;;;;;;;7.47;4.22;;;9.90;99.90;;;;;;4969715;28;20042;-72
2022/04/06 13:02:37;;;;;;;6.97;3.95;;;9.90;99.90;;;;;;4987192;28;20043;-72